sensor_id;sensor_type;location;lat;lon;timestamp;P1;durP1;ratioP1;P2;durP2;ratioP2
1885;SDS011;943;51.568;6.998;2023-06-10T00:00:05;11.10;;;8.50;;
1885;SDS011;943;51.568;6.998;2023-06-10T00:02:37;10.63;;;8.80;;
1885;SDS011;943;51.568;6.998;2023-06-10T00:05:06;10.77;;;8.83;;
1885;SDS011;943;51.568;6.998;2023-06-10T00:07:37;9.80;;;8.73;;
1885;SDS011;943;51.568;6.998;2023-06-10T00:10:05;11.70;;;9.40;;
1885;SDS011;943;51.568;6.998;2023-06-10T00:12:37;10.67;;;9.57;;
1885;SDS011;943;51.568;6.998;2023-06-10T00:15:05;10.40;;;9.30;;
1885;SDS011;943;51.568;6.998;2023-06-10T00:17:35;13.03;;;10.73;;
1885;SDS011;943;51.568;6.998;2023-06-10T00:20:08;10.97;;;9.70;;
1885;SDS011;943;51.568;6.998;2023-06-10T00:22:39;11.93;;;10.00;;
1885;SDS011;943;51.568;6.998;2023-06-10T00:25:12;12.73;;;9.30;;
1885;SDS011;943;51.568;6.998;2023-06-10T00:27:40;11.83;;;10.33;;
1885;SDS011;943;51.568;6.998;2023-06-10T00:30:12;12.00;;;9.07;;
1885;SDS011;943;51.568;6.998;2023-06-10T00:32:44;9.83;;;8.57;;
1885;SDS011;943;51.568;6.998;2023-06-10T00:35:16;14.23;;;9.27;;
1885;SDS011;943;51.568;6.998;2023-06-10T00:37:44;10.73;;;9.37;;
1885;SDS011;943;51.568;6.998;2023-06-10T00:40:14;10.77;;;9.67;;
1885;SDS011;943;51.568;6.998;2023-06-10T00:42:42;10.40;;;8.90;;
1885;SDS011;943;51.568;6.998;2023-06-10T00:45:10;10.70;;;9.70;;
1885;SDS011;943;51.568;6.998;2023-06-10T00:47:38;12.13;;;9.37;;
1885;SDS011;943;51.568;6.998;2023-06-10T00:50:07;10.10;;;8.90;;
1885;SDS011;943;51.568;6.998;2023-06-10T00:52:36;11.40;;;10.20;;
1885;SDS011;943;51.568;6.998;2023-06-10T00:55:05;10.43;;;9.43;;
1885;SDS011;943;51.568;6.998;2023-06-10T00:57:35;9.80;;;8.70;;
1885;SDS011;943;51.568;6.998;2023-06-10T01:00:04;11.03;;;9.20;;
1885;SDS011;943;51.568;6.998;2023-06-10T01:02:35;13.30;;;10.40;;
1885;SDS011;943;51.568;6.998;2023-06-10T01:05:07;11.20;;;9.93;;
1885;SDS011;943;51.568;6.998;2023-06-10T01:07:40;17.13;;;10.03;;
1885;SDS011;943;51.568;6.998;2023-06-10T01:10:39;11.43;;;10.33;;
1885;SDS011;943;51.568;6.998;2023-06-10T01:13:24;16.13;;;11.07;;
1885;SDS011;943;51.568;6.998;2023-06-10T01:15:59;12.60;;;9.97;;
1885;SDS011;943;51.568;6.998;2023-06-10T01:18:29;11.20;;;9.70;;
1885;SDS011;943;51.568;6.998;2023-06-10T01:21:00;11.23;;;9.60;;
1885;SDS011;943;51.568;6.998;2023-06-10T01:23:28;13.53;;;9.90;;
1885;SDS011;943;51.568;6.998;2023-06-10T01:26:02;11.53;;;10.50;;
1885;SDS011;943;51.568;6.998;2023-06-10T01:34:48;11.03;;;9.83;;
1885;SDS011;943;51.568;6.998;2023-06-10T01:37:19;11.73;;;9.90;;
1885;SDS011;943;51.568;6.998;2023-06-10T01:39:52;11.90;;;10.73;;
1885;SDS011;943;51.568;6.998;2023-06-10T01:42:26;11.43;;;10.23;;
1885;SDS011;943;51.568;6.998;2023-06-10T01:44:56;15.27;;;11.67;;
1885;SDS011;943;51.568;6.998;2023-06-10T01:47:24;12.53;;;11.30;;
1885;SDS011;943;51.568;6.998;2023-06-10T01:49:52;11.97;;;10.57;;
1885;SDS011;943;51.568;6.998;2023-06-10T01:52:20;12.60;;;11.13;;
1885;SDS011;943;51.568;6.998;2023-06-10T01:54:48;12.83;;;11.53;;
1885;SDS011;943;51.568;6.998;2023-06-10T01:57:16;11.70;;;10.50;;
1885;SDS011;943;51.568;6.998;2023-06-10T01:59:45;13.40;;;11.47;;
1885;SDS011;943;51.568;6.998;2023-06-10T02:02:14;12.67;;;10.63;;
1885;SDS011;943;51.568;6.998;2023-06-10T02:04:42;13.67;;;11.17;;
1885;SDS011;943;51.568;6.998;2023-06-10T02:07:10;12.40;;;11.10;;
1885;SDS011;943;51.568;6.998;2023-06-10T02:09:38;13.33;;;11.83;;
1885;SDS011;943;51.568;6.998;2023-06-10T02:12:07;13.03;;;11.10;;
1885;SDS011;943;51.568;6.998;2023-06-10T02:14:36;14.17;;;11.63;;
1885;SDS011;943;51.568;6.998;2023-06-10T02:17:04;18.33;;;12.47;;
1885;SDS011;943;51.568;6.998;2023-06-10T02:19:33;11.60;;;10.47;;
1885;SDS011;943;51.568;6.998;2023-06-10T02:22:03;11.90;;;10.67;;
1885;SDS011;943;51.568;6.998;2023-06-10T02:24:31;13.30;;;11.17;;
1885;SDS011;943;51.568;6.998;2023-06-10T02:26:59;12.90;;;11.50;;
1885;SDS011;943;51.568;6.998;2023-06-10T02:29:27;11.60;;;10.23;;
1885;SDS011;943;51.568;6.998;2023-06-10T02:31:55;13.27;;;10.73;;
1885;SDS011;943;51.568;6.998;2023-06-10T02:34:23;11.90;;;10.60;;
1885;SDS011;943;51.568;6.998;2023-06-10T02:36:52;12.83;;;10.87;;
1885;SDS011;943;51.568;6.998;2023-06-10T02:39:21;11.90;;;10.63;;
1885;SDS011;943;51.568;6.998;2023-06-10T02:41:50;12.90;;;11.17;;
1885;SDS011;943;51.568;6.998;2023-06-10T02:44:20;12.77;;;11.43;;
1885;SDS011;943;51.568;6.998;2023-06-10T02:46:48;14.60;;;10.60;;
1885;SDS011;943;51.568;6.998;2023-06-10T02:49:17;16.10;;;11.43;;
1885;SDS011;943;51.568;6.998;2023-06-10T02:51:45;11.33;;;9.90;;
1885;SDS011;943;51.568;6.998;2023-06-10T02:54:14;13.67;;;11.10;;
1885;SDS011;943;51.568;6.998;2023-06-10T02:56:43;13.83;;;10.80;;
1885;SDS011;943;51.568;6.998;2023-06-10T02:59:18;10.63;;;9.50;;
1885;SDS011;943;51.568;6.998;2023-06-10T03:01:46;17.50;;;10.53;;
1885;SDS011;943;51.568;6.998;2023-06-10T03:04:15;11.97;;;10.73;;
1885;SDS011;943;51.568;6.998;2023-06-10T03:06:51;11.93;;;10.73;;
1885;SDS011;943;51.568;6.998;2023-06-10T03:09:25;11.33;;;9.77;;
1885;SDS011;943;51.568;6.998;2023-06-10T03:11:56;13.30;;;10.07;;
1885;SDS011;943;51.568;6.998;2023-06-10T03:14:25;10.87;;;9.83;;
1885;SDS011;943;51.568;6.998;2023-06-10T03:16:53;11.83;;;10.43;;
1885;SDS011;943;51.568;6.998;2023-06-10T03:19:23;11.30;;;10.00;;
1885;SDS011;943;51.568;6.998;2023-06-10T03:21:57;13.67;;;10.10;;
1885;SDS011;943;51.568;6.998;2023-06-10T03:24:49;11.53;;;9.80;;
1885;SDS011;943;51.568;6.998;2023-06-10T03:27:18;11.33;;;10.03;;
1885;SDS011;943;51.568;6.998;2023-06-10T03:29:50;11.63;;;10.07;;
1885;SDS011;943;51.568;6.998;2023-06-10T03:32:19;10.40;;;9.30;;
1885;SDS011;943;51.568;6.998;2023-06-10T03:34:47;11.40;;;10.30;;
1885;SDS011;943;51.568;6.998;2023-06-10T03:37:15;10.87;;;9.77;;
1885;SDS011;943;51.568;6.998;2023-06-10T03:39:46;10.70;;;9.60;;
1885;SDS011;943;51.568;6.998;2023-06-10T03:42:14;10.10;;;9.10;;
1885;SDS011;943;51.568;6.998;2023-06-10T03:44:42;13.90;;;8.93;;
1885;SDS011;943;51.568;6.998;2023-06-10T03:47:10;12.80;;;9.40;;
1885;SDS011;943;51.568;6.998;2023-06-10T03:49:39;14.00;;;10.67;;
1885;SDS011;943;51.568;6.998;2023-06-10T03:52:08;11.50;;;9.83;;
1885;SDS011;943;51.568;6.998;2023-06-10T03:54:36;10.70;;;8.60;;
1885;SDS011;943;51.568;6.998;2023-06-10T03:57:04;11.20;;;10.00;;
1885;SDS011;943;51.568;6.998;2023-06-10T03:59:33;10.97;;;9.13;;
1885;SDS011;943;51.568;6.998;2023-06-10T04:02:03;9.30;;;8.30;;
1885;SDS011;943;51.568;6.998;2023-06-10T04:04:32;12.43;;;9.70;;
1885;SDS011;943;51.568;6.998;2023-06-10T04:07:00;8.80;;;8.00;;
1885;SDS011;943;51.568;6.998;2023-06-10T04:09:28;10.80;;;8.30;;
1885;SDS011;943;51.568;6.998;2023-06-10T04:11:56;9.77;;;8.23;;
1885;SDS011;943;51.568;6.998;2023-06-10T04:14:24;10.07;;;8.20;;
1885;SDS011;943;51.568;6.998;2023-06-10T04:16:52;15.70;;;8.77;;
1885;SDS011;943;51.568;6.998;2023-06-10T04:19:21;9.43;;;7.73;;
1885;SDS011;943;51.568;6.998;2023-06-10T04:21:50;12.90;;;8.00;;
1885;SDS011;943;51.568;6.998;2023-06-10T04:24:19;12.60;;;8.40;;
1885;SDS011;943;51.568;6.998;2023-06-10T04:26:47;10.23;;;8.40;;
1885;SDS011;943;51.568;6.998;2023-06-10T04:29:15;10.70;;;7.57;;
1885;SDS011;943;51.568;6.998;2023-06-10T04:31:44;10.07;;;7.60;;
1885;SDS011;943;51.568;6.998;2023-06-10T04:34:13;11.67;;;7.87;;
1885;SDS011;943;51.568;6.998;2023-06-10T04:36:41;9.20;;;7.70;;
1885;SDS011;943;51.568;6.998;2023-06-10T04:39:09;12.03;;;7.80;;
1885;SDS011;943;51.568;6.998;2023-06-10T04:41:38;10.60;;;6.93;;
1885;SDS011;943;51.568;6.998;2023-06-10T04:44:07;8.23;;;6.63;;
1885;SDS011;943;51.568;6.998;2023-06-10T04:46:35;11.10;;;7.60;;
1885;SDS011;943;51.568;6.998;2023-06-10T04:49:03;10.40;;;7.63;;
1885;SDS011;943;51.568;6.998;2023-06-10T04:51:31;10.20;;;7.30;;
1885;SDS011;943;51.568;6.998;2023-06-10T04:54:01;9.60;;;6.93;;
1885;SDS011;943;51.568;6.998;2023-06-10T04:56:30;9.40;;;7.57;;
1885;SDS011;943;51.568;6.998;2023-06-10T04:58:59;10.93;;;7.47;;
1885;SDS011;943;51.568;6.998;2023-06-10T05:01:27;10.63;;;6.57;;
1885;SDS011;943;51.568;6.998;2023-06-10T05:03:55;8.37;;;6.80;;
1885;SDS011;943;51.568;6.998;2023-06-10T05:06:23;9.23;;;7.17;;
1885;SDS011;943;51.568;6.998;2023-06-10T05:08:51;11.40;;;6.80;;
1885;SDS011;943;51.568;6.998;2023-06-10T05:11:19;8.93;;;7.40;;
1885;SDS011;943;51.568;6.998;2023-06-10T05:13:47;11.17;;;6.97;;
1885;SDS011;943;51.568;6.998;2023-06-10T05:16:15;9.63;;;7.03;;
1885;SDS011;943;51.568;6.998;2023-06-10T05:18:43;8.97;;;7.47;;
1885;SDS011;943;51.568;6.998;2023-06-10T05:21:11;9.63;;;6.93;;
1885;SDS011;943;51.568;6.998;2023-06-10T05:23:39;8.40;;;5.93;;
1885;SDS011;943;51.568;6.998;2023-06-10T05:26:07;9.10;;;6.23;;
1885;SDS011;943;51.568;6.998;2023-06-10T05:28:35;8.50;;;7.10;;
1885;SDS011;943;51.568;6.998;2023-06-10T05:31:03;8.00;;;6.13;;
1885;SDS011;943;51.568;6.998;2023-06-10T05:33:31;9.73;;;6.93;;
1885;SDS011;943;51.568;6.998;2023-06-10T05:35:59;7.87;;;5.70;;
1885;SDS011;943;51.568;6.998;2023-06-10T05:38:27;8.53;;;6.20;;
1885;SDS011;943;51.568;6.998;2023-06-10T05:40:55;9.20;;;5.90;;
1885;SDS011;943;51.568;6.998;2023-06-10T05:43:23;6.80;;;5.80;;
1885;SDS011;943;51.568;6.998;2023-06-10T05:45:52;9.50;;;7.00;;
1885;SDS011;943;51.568;6.998;2023-06-10T05:48:20;9.23;;;6.33;;
1885;SDS011;943;51.568;6.998;2023-06-10T05:50:48;15.03;;;6.60;;
1885;SDS011;943;51.568;6.998;2023-06-10T05:53:16;7.60;;;6.13;;
1885;SDS011;943;51.568;6.998;2023-06-10T05:55:45;8.80;;;6.73;;
1885;SDS011;943;51.568;6.998;2023-06-10T05:58:14;9.80;;;5.93;;
1885;SDS011;943;51.568;6.998;2023-06-10T06:00:44;9.67;;;7.47;;
1885;SDS011;943;51.568;6.998;2023-06-10T06:03:12;12.73;;;6.80;;
1885;SDS011;943;51.568;6.998;2023-06-10T06:05:40;6.90;;;6.03;;
1885;SDS011;943;51.568;6.998;2023-06-10T06:08:09;9.97;;;6.53;;
1885;SDS011;943;51.568;6.998;2023-06-10T06:10:37;8.77;;;6.70;;
1885;SDS011;943;51.568;6.998;2023-06-10T06:13:05;8.47;;;6.83;;
1885;SDS011;943;51.568;6.998;2023-06-10T06:15:33;13.43;;;5.80;;
1885;SDS011;943;51.568;6.998;2023-06-10T06:18:01;9.03;;;6.40;;
1885;SDS011;943;51.568;6.998;2023-06-10T06:20:29;9.67;;;6.57;;
1885;SDS011;943;51.568;6.998;2023-06-10T06:22:57;9.90;;;5.43;;
1885;SDS011;943;51.568;6.998;2023-06-10T06:25:28;8.60;;;6.20;;
1885;SDS011;943;51.568;6.998;2023-06-10T06:28:00;7.90;;;7.10;;
1885;SDS011;943;51.568;6.998;2023-06-10T06:30:31;6.73;;;5.47;;
1885;SDS011;943;51.568;6.998;2023-06-10T06:33:01;8.27;;;5.80;;
1885;SDS011;943;51.568;6.998;2023-06-10T06:35:32;10.93;;;5.93;;
1885;SDS011;943;51.568;6.998;2023-06-10T06:38:01;6.27;;;5.67;;
1885;SDS011;943;51.568;6.998;2023-06-10T06:40:31;8.70;;;6.30;;
1885;SDS011;943;51.568;6.998;2023-06-10T06:42:59;8.03;;;5.87;;
1885;SDS011;943;51.568;6.998;2023-06-10T06:45:49;7.20;;;5.30;;
1885;SDS011;943;51.568;6.998;2023-06-10T06:48:17;7.53;;;5.90;;
1885;SDS011;943;51.568;6.998;2023-06-10T06:50:46;6.83;;;5.43;;
1885;SDS011;943;51.568;6.998;2023-06-10T06:53:14;8.30;;;5.50;;
1885;SDS011;943;51.568;6.998;2023-06-10T06:55:42;8.80;;;5.93;;
1885;SDS011;943;51.568;6.998;2023-06-10T06:58:09;8.40;;;5.67;;
1885;SDS011;943;51.568;6.998;2023-06-10T07:00:37;8.40;;;6.17;;
1885;SDS011;943;51.568;6.998;2023-06-10T07:03:05;7.13;;;5.40;;
1885;SDS011;943;51.568;6.998;2023-06-10T07:05:33;9.67;;;6.27;;
1885;SDS011;943;51.568;6.998;2023-06-10T07:08:02;9.37;;;5.40;;
1885;SDS011;943;51.568;6.998;2023-06-10T07:10:30;6.13;;;5.53;;
1885;SDS011;943;51.568;6.998;2023-06-10T07:12:58;8.47;;;5.60;;
1885;SDS011;943;51.568;6.998;2023-06-10T07:15:26;8.73;;;5.70;;
1885;SDS011;943;51.568;6.998;2023-06-10T07:17:54;8.23;;;5.80;;
1885;SDS011;943;51.568;6.998;2023-06-10T07:20:22;8.33;;;5.30;;
1885;SDS011;943;51.568;6.998;2023-06-10T07:22:50;7.93;;;5.20;;
1885;SDS011;943;51.568;6.998;2023-06-10T07:25:18;5.87;;;4.70;;
1885;SDS011;943;51.568;6.998;2023-06-10T07:27:46;7.40;;;5.53;;
1885;SDS011;943;51.568;6.998;2023-06-10T07:30:14;7.33;;;5.13;;
1885;SDS011;943;51.568;6.998;2023-06-10T07:32:42;6.93;;;5.97;;
1885;SDS011;943;51.568;6.998;2023-06-10T07:35:10;12.23;;;6.60;;
1885;SDS011;943;51.568;6.998;2023-06-10T07:37:41;7.27;;;5.83;;
1885;SDS011;943;51.568;6.998;2023-06-10T07:40:09;8.00;;;5.43;;
1885;SDS011;943;51.568;6.998;2023-06-10T07:42:37;6.73;;;5.80;;
1885;SDS011;943;51.568;6.998;2023-06-10T07:45:05;6.57;;;5.20;;
1885;SDS011;943;51.568;6.998;2023-06-10T07:47:35;7.17;;;6.00;;
1885;SDS011;943;51.568;6.998;2023-06-10T07:50:02;8.23;;;5.43;;
1885;SDS011;943;51.568;6.998;2023-06-10T07:52:32;7.03;;;5.17;;
1885;SDS011;943;51.568;6.998;2023-06-10T07:55:00;8.60;;;5.33;;
1885;SDS011;943;51.568;6.998;2023-06-10T07:57:28;6.30;;;5.00;;
1885;SDS011;943;51.568;6.998;2023-06-10T07:59:58;8.13;;;5.43;;
1885;SDS011;943;51.568;6.998;2023-06-10T08:02:26;9.57;;;4.90;;
1885;SDS011;943;51.568;6.998;2023-06-10T08:04:54;7.83;;;5.50;;
1885;SDS011;943;51.568;6.998;2023-06-10T08:07:22;6.33;;;5.10;;
1885;SDS011;943;51.568;6.998;2023-06-10T08:09:50;6.50;;;4.90;;
1885;SDS011;943;51.568;6.998;2023-06-10T08:12:18;7.60;;;5.97;;
1885;SDS011;943;51.568;6.998;2023-06-10T08:14:47;7.33;;;4.67;;
1885;SDS011;943;51.568;6.998;2023-06-10T08:17:14;6.73;;;5.63;;
1885;SDS011;943;51.568;6.998;2023-06-10T08:19:42;7.80;;;5.67;;
1885;SDS011;943;51.568;6.998;2023-06-10T08:22:10;7.97;;;5.03;;
1885;SDS011;943;51.568;6.998;2023-06-10T08:24:38;6.60;;;5.20;;
1885;SDS011;943;51.568;6.998;2023-06-10T08:27:07;10.00;;;5.30;;
1885;SDS011;943;51.568;6.998;2023-06-10T08:29:36;9.13;;;4.80;;
1885;SDS011;943;51.568;6.998;2023-06-10T08:32:04;6.37;;;5.07;;
1885;SDS011;943;51.568;6.998;2023-06-10T08:34:33;6.80;;;5.23;;
1885;SDS011;943;51.568;6.998;2023-06-10T08:37:02;10.07;;;5.00;;
1885;SDS011;943;51.568;6.998;2023-06-10T08:39:34;6.77;;;4.83;;
1885;SDS011;943;51.568;6.998;2023-06-10T08:45:11;8.27;;;6.10;;
1885;SDS011;943;51.568;6.998;2023-06-10T08:47:45;10.80;;;5.20;;
1885;SDS011;943;51.568;6.998;2023-06-10T08:50:19;7.23;;;5.63;;
1885;SDS011;943;51.568;6.998;2023-06-10T08:52:50;6.20;;;5.60;;
1885;SDS011;943;51.568;6.998;2023-06-10T08:55:30;6.70;;;5.20;;
1885;SDS011;943;51.568;6.998;2023-06-10T08:58:09;8.10;;;5.33;;
1885;SDS011;943;51.568;6.998;2023-06-10T09:00:40;6.43;;;5.73;;
1885;SDS011;943;51.568;6.998;2023-06-10T09:03:09;5.47;;;4.90;;
1885;SDS011;943;51.568;6.998;2023-06-10T09:05:40;6.27;;;4.90;;
1885;SDS011;943;51.568;6.998;2023-06-10T09:08:09;6.80;;;6.10;;
1885;SDS011;943;51.568;6.998;2023-06-10T09:10:38;7.57;;;5.30;;
1885;SDS011;943;51.568;6.998;2023-06-10T09:13:07;6.07;;;5.17;;
1885;SDS011;943;51.568;6.998;2023-06-10T09:15:35;6.77;;;5.80;;
1885;SDS011;943;51.568;6.998;2023-06-10T09:18:03;7.77;;;5.53;;
1885;SDS011;943;51.568;6.998;2023-06-10T09:20:32;9.97;;;5.57;;
1885;SDS011;943;51.568;6.998;2023-06-10T09:23:00;6.80;;;5.67;;
1885;SDS011;943;51.568;6.998;2023-06-10T09:25:35;6.40;;;5.27;;
1885;SDS011;943;51.568;6.998;2023-06-10T09:28:09;8.10;;;5.53;;
1885;SDS011;943;51.568;6.998;2023-06-10T09:30:42;6.57;;;5.20;;
1885;SDS011;943;51.568;6.998;2023-06-10T09:33:13;7.90;;;5.50;;
1885;SDS011;943;51.568;6.998;2023-06-10T09:35:46;8.40;;;5.63;;
1885;SDS011;943;51.568;6.998;2023-06-10T09:38:21;7.80;;;5.80;;
1885;SDS011;943;51.568;6.998;2023-06-10T09:40:53;8.60;;;5.47;;
1885;SDS011;943;51.568;6.998;2023-06-10T09:43:22;7.57;;;5.73;;
1885;SDS011;943;51.568;6.998;2023-06-10T09:46:04;9.40;;;5.00;;
1885;SDS011;943;51.568;6.998;2023-06-10T09:48:39;7.20;;;6.00;;
1885;SDS011;943;51.568;6.998;2023-06-10T09:51:16;8.57;;;5.70;;
1885;SDS011;943;51.568;6.998;2023-06-10T09:53:53;6.23;;;5.00;;
1885;SDS011;943;51.568;6.998;2023-06-10T09:56:36;7.73;;;6.20;;
1885;SDS011;943;51.568;6.998;2023-06-10T09:59:09;7.13;;;6.07;;
1885;SDS011;943;51.568;6.998;2023-06-10T10:01:45;8.33;;;5.87;;
1885;SDS011;943;51.568;6.998;2023-06-10T10:04:27;8.00;;;6.20;;
1885;SDS011;943;51.568;6.998;2023-06-10T10:06:55;6.43;;;5.70;;
1885;SDS011;943;51.568;6.998;2023-06-10T10:09:24;8.90;;;6.13;;
1885;SDS011;943;51.568;6.998;2023-06-10T10:11:52;7.50;;;6.20;;
1885;SDS011;943;51.568;6.998;2023-06-10T10:14:24;7.10;;;6.33;;
1885;SDS011;943;51.568;6.998;2023-06-10T10:16:55;7.27;;;5.80;;
1885;SDS011;943;51.568;6.998;2023-06-10T10:19:28;6.20;;;5.40;;
1885;SDS011;943;51.568;6.998;2023-06-10T10:22:27;9.80;;;5.60;;
1885;SDS011;943;51.568;6.998;2023-06-10T10:25:08;8.30;;;5.93;;
1885;SDS011;943;51.568;6.998;2023-06-10T10:27:51;6.03;;;5.40;;
1885;SDS011;943;51.568;6.998;2023-06-10T10:30:40;7.93;;;6.40;;
1885;SDS011;943;51.568;6.998;2023-06-10T10:33:31;6.17;;;5.27;;
1885;SDS011;943;51.568;6.998;2023-06-10T10:36:38;7.00;;;5.87;;
1885;SDS011;943;51.568;6.998;2023-06-10T10:39:13;9.60;;;7.23;;
1885;SDS011;943;51.568;6.998;2023-06-10T10:41:50;8.70;;;5.70;;
1885;SDS011;943;51.568;6.998;2023-06-10T10:44:20;6.90;;;6.17;;
1885;SDS011;943;51.568;6.998;2023-06-10T10:46:50;7.17;;;5.77;;
1885;SDS011;943;51.568;6.998;2023-06-10T10:49:21;8.80;;;5.73;;
1885;SDS011;943;51.568;6.998;2023-06-10T10:51:55;8.50;;;5.87;;
1885;SDS011;943;51.568;6.998;2023-06-10T10:54:30;7.00;;;6.23;;
1885;SDS011;943;51.568;6.998;2023-06-10T10:57:16;8.00;;;6.30;;
1885;SDS011;943;51.568;6.998;2023-06-10T11:02:33;6.87;;;6.17;;
1885;SDS011;943;51.568;6.998;2023-06-10T11:05:16;7.40;;;6.70;;
1885;SDS011;943;51.568;6.998;2023-06-10T11:07:51;7.47;;;5.70;;
1885;SDS011;943;51.568;6.998;2023-06-10T11:10:30;7.47;;;5.87;;
1885;SDS011;943;51.568;6.998;2023-06-10T11:13:08;9.00;;;6.00;;
1885;SDS011;943;51.568;6.998;2023-06-10T11:15:45;7.20;;;5.57;;
1885;SDS011;943;51.568;6.998;2023-06-10T11:18:25;10.43;;;5.70;;
1885;SDS011;943;51.568;6.998;2023-06-10T11:31:26;7.30;;;6.03;;
1885;SDS011;943;51.568;6.998;2023-06-10T11:34:08;7.93;;;6.30;;
1885;SDS011;943;51.568;6.998;2023-06-10T11:36:37;7.20;;;6.20;;
1885;SDS011;943;51.568;6.998;2023-06-10T11:39:12;9.70;;;6.43;;
1885;SDS011;943;51.568;6.998;2023-06-10T11:41:40;7.27;;;5.70;;
1885;SDS011;943;51.568;6.998;2023-06-10T11:44:09;6.83;;;6.13;;
1885;SDS011;943;51.568;6.998;2023-06-10T11:46:47;9.50;;;6.10;;
1885;SDS011;943;51.568;6.998;2023-06-10T11:49:20;10.20;;;6.43;;
1885;SDS011;943;51.568;6.998;2023-06-10T11:51:49;7.37;;;6.40;;
1885;SDS011;943;51.568;6.998;2023-06-10T11:54:18;11.90;;;5.73;;
1885;SDS011;943;51.568;6.998;2023-06-10T11:56:46;7.57;;;6.03;;
1885;SDS011;943;51.568;6.998;2023-06-10T11:59:15;6.93;;;6.20;;
1885;SDS011;943;51.568;6.998;2023-06-10T12:01:45;8.90;;;7.50;;
1885;SDS011;943;51.568;6.998;2023-06-10T12:04:14;7.23;;;6.53;;
1885;SDS011;943;51.568;6.998;2023-06-10T12:06:46;7.70;;;6.00;;
1885;SDS011;943;51.568;6.998;2023-06-10T12:09:25;6.30;;;5.70;;
1885;SDS011;943;51.568;6.998;2023-06-10T12:11:57;8.93;;;6.90;;
1885;SDS011;943;51.568;6.998;2023-06-10T12:14:52;7.50;;;6.80;;
1885;SDS011;943;51.568;6.998;2023-06-10T12:20:02;7.77;;;6.63;;
1885;SDS011;943;51.568;6.998;2023-06-10T12:22:52;8.53;;;6.57;;
1885;SDS011;943;51.568;6.998;2023-06-10T12:25:26;9.40;;;6.50;;
1885;SDS011;943;51.568;6.998;2023-06-10T12:27:56;8.20;;;6.30;;
1885;SDS011;943;51.568;6.998;2023-06-10T12:30:26;10.27;;;5.83;;
1885;SDS011;943;51.568;6.998;2023-06-10T12:32:55;7.00;;;6.03;;
1885;SDS011;943;51.568;6.998;2023-06-10T12:35:25;9.20;;;5.40;;
1885;SDS011;943;51.568;6.998;2023-06-10T12:40:36;7.40;;;6.40;;
1885;SDS011;943;51.568;6.998;2023-06-10T12:43:07;7.57;;;6.77;;
1885;SDS011;943;51.568;6.998;2023-06-10T12:45:36;8.07;;;6.70;;
1885;SDS011;943;51.568;6.998;2023-06-10T12:48:20;7.10;;;6.40;;
1885;SDS011;943;51.568;6.998;2023-06-10T12:50:54;7.30;;;6.50;;
1885;SDS011;943;51.568;6.998;2023-06-10T12:53:25;13.03;;;7.33;;
1885;SDS011;943;51.568;6.998;2023-06-10T12:55:54;10.87;;;6.77;;
1885;SDS011;943;51.568;6.998;2023-06-10T12:58:22;7.20;;;6.53;;
1885;SDS011;943;51.568;6.998;2023-06-10T13:00:50;7.27;;;6.60;;
1885;SDS011;943;51.568;6.998;2023-06-10T13:03:21;7.30;;;6.37;;
1885;SDS011;943;51.568;6.998;2023-06-10T13:05:49;7.30;;;6.60;;
1885;SDS011;943;51.568;6.998;2023-06-10T13:08:19;7.80;;;7.10;;
1885;SDS011;943;51.568;6.998;2023-06-10T13:10:47;11.50;;;7.23;;
1885;SDS011;943;51.568;6.998;2023-06-10T13:13:15;8.83;;;7.17;;
1885;SDS011;943;51.568;6.998;2023-06-10T13:15:45;7.33;;;6.63;;
1885;SDS011;943;51.568;6.998;2023-06-10T13:18:13;8.83;;;7.03;;
1885;SDS011;943;51.568;6.998;2023-06-10T13:20:41;8.03;;;6.33;;
1885;SDS011;943;51.568;6.998;2023-06-10T13:23:09;6.90;;;5.97;;
1885;SDS011;943;51.568;6.998;2023-06-10T13:25:39;7.03;;;6.10;;
1885;SDS011;943;51.568;6.998;2023-06-10T13:28:07;7.00;;;6.30;;
1885;SDS011;943;51.568;6.998;2023-06-10T13:30:35;7.87;;;6.67;;
1885;SDS011;943;51.568;6.998;2023-06-10T13:33:03;6.90;;;6.20;;
1885;SDS011;943;51.568;6.998;2023-06-10T13:35:31;8.50;;;6.57;;
1885;SDS011;943;51.568;6.998;2023-06-10T13:37:59;9.30;;;6.87;;
1885;SDS011;943;51.568;6.998;2023-06-10T13:40:27;11.40;;;8.50;;
1885;SDS011;943;51.568;6.998;2023-06-10T13:42:55;6.90;;;6.10;;
1885;SDS011;943;51.568;6.998;2023-06-10T13:45:23;5.83;;;5.30;;
1885;SDS011;943;51.568;6.998;2023-06-10T13:47:51;11.53;;;6.60;;
1885;SDS011;943;51.568;6.998;2023-06-10T13:50:19;8.20;;;7.30;;
1885;SDS011;943;51.568;6.998;2023-06-10T13:52:47;7.13;;;6.47;;
1885;SDS011;943;51.568;6.998;2023-06-10T13:55:15;7.07;;;5.60;;
1885;SDS011;943;51.568;6.998;2023-06-10T13:57:45;10.20;;;6.77;;
1885;SDS011;943;51.568;6.998;2023-06-10T14:00:13;8.33;;;6.00;;
1885;SDS011;943;51.568;6.998;2023-06-10T14:02:41;11.03;;;6.10;;
1885;SDS011;943;51.568;6.998;2023-06-10T14:05:09;6.87;;;6.10;;
1885;SDS011;943;51.568;6.998;2023-06-10T14:07:37;7.80;;;6.20;;
1885;SDS011;943;51.568;6.998;2023-06-10T14:10:07;6.40;;;5.80;;
1885;SDS011;943;51.568;6.998;2023-06-10T14:12:36;6.83;;;6.13;;
1885;SDS011;943;51.568;6.998;2023-06-10T14:15:04;6.70;;;6.00;;
1885;SDS011;943;51.568;6.998;2023-06-10T14:17:34;10.40;;;6.73;;
1885;SDS011;943;51.568;6.998;2023-06-10T14:20:02;6.73;;;5.80;;
1885;SDS011;943;51.568;6.998;2023-06-10T14:22:31;7.73;;;6.73;;
1885;SDS011;943;51.568;6.998;2023-06-10T14:24:59;9.20;;;6.97;;
1885;SDS011;943;51.568;6.998;2023-06-10T14:27:26;13.90;;;6.20;;
1885;SDS011;943;51.568;6.998;2023-06-10T14:29:54;7.80;;;6.57;;
1885;SDS011;943;51.568;6.998;2023-06-10T14:32:22;8.40;;;6.13;;
1885;SDS011;943;51.568;6.998;2023-06-10T14:34:50;6.43;;;5.83;;
1885;SDS011;943;51.568;6.998;2023-06-10T14:37:18;7.40;;;6.70;;
1885;SDS011;943;51.568;6.998;2023-06-10T14:39:45;8.10;;;6.57;;
1885;SDS011;943;51.568;6.998;2023-06-10T14:42:13;7.70;;;6.43;;
1885;SDS011;943;51.568;6.998;2023-06-10T14:44:41;6.50;;;5.90;;
1885;SDS011;943;51.568;6.998;2023-06-10T14:47:09;17.57;;;15.80;;
1885;SDS011;943;51.568;6.998;2023-06-10T14:49:37;8.73;;;7.90;;
1885;SDS011;943;51.568;6.998;2023-06-10T14:52:04;9.00;;;6.73;;
1885;SDS011;943;51.568;6.998;2023-06-10T14:54:33;6.53;;;5.93;;
1885;SDS011;943;51.568;6.998;2023-06-10T14:57:01;7.87;;;7.07;;
1885;SDS011;943;51.568;6.998;2023-06-10T14:59:29;8.30;;;6.83;;
1885;SDS011;943;51.568;6.998;2023-06-10T15:01:59;7.93;;;7.13;;
1885;SDS011;943;51.568;6.998;2023-06-10T15:04:28;8.07;;;6.17;;
1885;SDS011;943;51.568;6.998;2023-06-10T15:06:55;8.73;;;6.40;;
1885;SDS011;943;51.568;6.998;2023-06-10T15:09:24;10.83;;;6.30;;
1885;SDS011;943;51.568;6.998;2023-06-10T15:11:52;8.13;;;6.03;;
1885;SDS011;943;51.568;6.998;2023-06-10T15:14:20;7.00;;;6.20;;
1885;SDS011;943;51.568;6.998;2023-06-10T15:16:48;8.73;;;6.10;;
1885;SDS011;943;51.568;6.998;2023-06-10T15:19:16;6.27;;;5.67;;
1885;SDS011;943;51.568;6.998;2023-06-10T15:21:44;9.47;;;7.00;;
1885;SDS011;943;51.568;6.998;2023-06-10T15:24:12;7.30;;;5.97;;
1885;SDS011;943;51.568;6.998;2023-06-10T15:26:40;11.17;;;6.40;;
1885;SDS011;943;51.568;6.998;2023-06-10T15:29:08;8.43;;;6.27;;
1885;SDS011;943;51.568;6.998;2023-06-10T15:31:36;9.90;;;7.43;;
1885;SDS011;943;51.568;6.998;2023-06-10T15:34:04;6.73;;;6.10;;
1885;SDS011;943;51.568;6.998;2023-06-10T15:36:35;8.90;;;6.77;;
1885;SDS011;943;51.568;6.998;2023-06-10T15:39:03;7.47;;;6.77;;
1885;SDS011;943;51.568;6.998;2023-06-10T15:41:33;8.70;;;6.77;;
1885;SDS011;943;51.568;6.998;2023-06-10T15:44:02;9.27;;;5.97;;
1885;SDS011;943;51.568;6.998;2023-06-10T15:46:30;7.20;;;6.60;;
1885;SDS011;943;51.568;6.998;2023-06-10T15:48:58;7.27;;;6.20;;
1885;SDS011;943;51.568;6.998;2023-06-10T15:51:26;10.43;;;6.80;;
1885;SDS011;943;51.568;6.998;2023-06-10T15:53:54;9.13;;;6.40;;
1885;SDS011;943;51.568;6.998;2023-06-10T15:56:22;9.07;;;6.67;;
1885;SDS011;943;51.568;6.998;2023-06-10T15:58:51;7.10;;;5.60;;
1885;SDS011;943;51.568;6.998;2023-06-10T16:01:19;14.73;;;6.37;;
1885;SDS011;943;51.568;6.998;2023-06-10T16:03:48;9.07;;;6.50;;
1885;SDS011;943;51.568;6.998;2023-06-10T16:06:17;8.47;;;6.87;;
1885;SDS011;943;51.568;6.998;2023-06-10T16:08:45;7.40;;;6.70;;